createdAt,value
2023-04-19T00:00:41.746Z,6.27
2023-04-19T00:03:10.179Z,6.55
2023-04-19T00:05:41.224Z,6.75
2023-04-19T00:08:08.835Z,6.00
2023-04-19T00:10:36.139Z,6.25
2023-04-19T00:13:03.492Z,7.17
2023-04-19T00:15:30.740Z,7.05
2023-04-19T00:17:58.010Z,7.32
2023-04-19T00:20:25.233Z,6.57
2023-04-19T00:22:52.626Z,6.40
2023-04-19T00:25:19.912Z,6.60
2023-04-19T00:27:47.121Z,6.40
2023-04-19T00:30:14.738Z,6.70
2023-04-19T00:32:42.058Z,7.40
2023-04-19T00:35:09.426Z,7.35
2023-04-19T00:37:36.718Z,7.50
2023-04-19T00:40:06.012Z,6.85
2023-04-19T00:42:33.369Z,6.97
2023-04-19T00:45:00.666Z,6.93
2023-04-19T00:47:28.048Z,7.32
2023-04-19T00:49:55.711Z,7.70
2023-04-19T00:52:22.974Z,7.47
2023-04-19T00:54:50.214Z,7.88
2023-04-19T00:57:17.846Z,7.55
2023-04-19T00:59:45.111Z,7.35
2023-04-19T01:02:12.954Z,7.40
2023-04-19T01:04:40.458Z,7.40
2023-04-19T01:07:07.846Z,7.95
2023-04-19T01:09:35.117Z,8.07
2023-04-19T01:12:03.576Z,7.70
2023-04-19T01:14:30.884Z,7.77
2023-04-19T01:16:58.252Z,8.40
2023-04-19T01:19:26.946Z,8.40
2023-04-19T01:21:56.430Z,7.72
2023-04-19T01:24:23.771Z,8.50
2023-04-19T01:26:51.434Z,8.03
2023-04-19T01:29:18.908Z,8.70
2023-04-19T01:31:51.456Z,9.13
2023-04-19T01:34:18.825Z,8.13
2023-04-19T01:36:46.322Z,8.55
2023-04-19T01:39:13.763Z,8.10
2023-04-19T01:41:41.045Z,9.27
2023-04-19T01:44:10.088Z,8.52
2023-04-19T01:46:38.950Z,8.25
2023-04-19T01:49:06.488Z,8.95
2023-04-19T01:51:33.713Z,9.37
2023-04-19T01:54:02.686Z,8.93
2023-04-19T01:56:30.102Z,8.88
2023-04-19T01:58:57.440Z,8.02
2023-04-19T02:01:25.014Z,8.90
2023-04-19T02:03:52.498Z,8.47
2023-04-19T02:06:20.450Z,8.82
2023-04-19T02:08:50.089Z,8.75
2023-04-19T02:11:17.488Z,8.02
2023-04-19T02:13:44.813Z,8.13
2023-04-19T02:16:12.235Z,8.53
2023-04-19T02:18:40.792Z,8.60
2023-04-19T02:21:10.020Z,7.72
2023-04-19T02:23:37.393Z,8.73
2023-04-19T02:26:04.719Z,8.93
2023-04-19T02:28:32.304Z,8.80
2023-04-19T02:30:59.558Z,9.05
2023-04-19T02:33:29.207Z,9.10
2023-04-19T02:35:56.482Z,9.75
2023-04-19T02:38:23.792Z,8.73
2023-04-19T02:40:54.265Z,8.50
2023-04-19T02:43:21.530Z,9.32
2023-04-19T02:45:48.819Z,8.75
2023-04-19T02:48:16.153Z,9.32
2023-04-19T02:50:43.448Z,8.73
2023-04-19T02:53:10.801Z,9.23
2023-04-19T02:55:38.455Z,9.38
2023-04-19T02:58:10.597Z,9.07
2023-04-19T03:00:44.214Z,9.50
2023-04-19T03:03:15.625Z,9.82
2023-04-19T03:05:43.063Z,9.43
2023-04-19T03:08:11.227Z,8.98
2023-04-19T03:10:39.200Z,9.32
2023-04-19T03:13:06.424Z,9.57
2023-04-19T03:15:33.704Z,10.32
2023-04-19T03:18:01.089Z,9.37
2023-04-19T03:20:30.075Z,10.10
2023-04-19T03:22:58.159Z,10.73
2023-04-19T03:25:26.170Z,10.02
2023-04-19T03:28:00.901Z,10.25
2023-04-19T03:30:51.140Z,10.23
2023-04-19T03:33:18.524Z,9.95
2023-04-19T03:35:46.128Z,10.07
2023-04-19T03:38:13.446Z,10.43
2023-04-19T03:40:40.694Z,10.32
2023-04-19T03:43:10.608Z,9.63
2023-04-19T03:45:37.905Z,10.10
2023-04-19T03:48:05.560Z,10.40
2023-04-19T03:50:32.872Z,10.52
2023-04-19T03:53:01.391Z,10.15
2023-04-19T03:55:28.881Z,10.17
2023-04-19T03:57:56.494Z,10.23
2023-04-19T04:00:36.482Z,10.77
2023-04-19T04:03:04.181Z,10.32
2023-04-19T04:05:31.936Z,11.23
2023-04-19T04:08:01.084Z,10.10
2023-04-19T04:10:28.394Z,11.48
2023-04-19T04:12:55.850Z,10.88
2023-04-19T04:15:35.635Z,10.55
2023-04-19T04:18:03.917Z,11.00
2023-04-19T04:20:31.698Z,10.80
2023-04-19T04:23:05.500Z,10.32
2023-04-19T04:25:33.182Z,10.13
2023-04-19T04:28:06.333Z,11.05
2023-04-19T04:30:34.481Z,11.10
2023-04-19T04:33:02.693Z,11.00
2023-04-19T04:35:30.790Z,11.90
2023-04-19T04:38:17.481Z,10.90
2023-04-19T04:40:57.018Z,10.23
2023-04-19T04:43:25.878Z,12.15
2023-04-19T04:45:55.747Z,11.67
2023-04-19T04:48:24.326Z,11.65
2023-04-19T04:50:51.622Z,11.60
2023-04-19T04:53:20.335Z,11.07
2023-04-19T04:55:47.578Z,11.27
2023-04-19T04:58:15.265Z,11.97
2023-04-19T05:00:52.376Z,11.38
2023-04-19T05:03:20.349Z,12.45
2023-04-19T05:05:53.927Z,11.52
2023-04-19T05:08:21.485Z,11.93
2023-04-19T05:10:49.319Z,11.80
2023-04-19T05:13:23.666Z,12.65
2023-04-19T05:15:51.854Z,12.07
2023-04-19T05:18:19.809Z,12.50
2023-04-19T05:20:47.506Z,11.98
2023-04-19T05:23:20.352Z,12.60
2023-04-19T05:25:49.485Z,13.18
2023-04-19T05:28:16.984Z,13.25
2023-04-19T05:30:57.190Z,12.75
2023-04-19T05:33:29.039Z,13.48
2023-04-19T05:35:57.685Z,11.73
2023-04-19T05:38:25.184Z,12.32
2023-04-19T05:40:56.597Z,10.98
2023-04-19T05:43:30.421Z,11.68
2023-04-19T05:45:58.483Z,13.65
2023-04-19T05:48:26.564Z,13.50
2023-04-19T05:51:07.284Z,12.15
2023-04-19T05:56:47.493Z,12.52
2023-04-19T05:59:16.120Z,12.70
2023-04-19T06:01:43.750Z,12.90
2023-04-19T06:04:11.666Z,12.40
2023-04-19T06:06:39.391Z,12.52
2023-04-19T06:09:42.243Z,12.45
2023-04-19T06:12:12.993Z,13.32
2023-04-19T06:14:40.821Z,12.73
2023-04-19T06:17:09.002Z,12.82
2023-04-19T06:19:37.855Z,13.25
2023-04-19T06:22:05.330Z,13.15
2023-04-19T06:24:33.751Z,13.65
2023-04-19T06:27:03.037Z,13.40
2023-04-19T06:29:30.672Z,12.23
2023-04-19T06:32:20.289Z,13.27
2023-04-19T06:34:50.935Z,13.45
2023-04-19T06:37:18.304Z,13.57
2023-04-19T06:39:45.829Z,13.00
2023-04-19T06:42:15.004Z,14.00
2023-04-19T06:44:42.318Z,12.73
2023-04-19T06:47:09.918Z,12.73
2023-04-19T06:49:37.649Z,14.02
2023-04-19T06:52:04.953Z,14.20
2023-04-19T06:54:32.641Z,13.27
2023-04-19T06:57:00.967Z,14.10
2023-04-19T06:59:28.526Z,13.68
2023-04-19T07:04:54.354Z,14.27
2023-04-19T07:07:21.958Z,13.40
2023-04-19T07:09:52.228Z,12.95
2023-04-19T07:12:19.765Z,14.00
2023-04-19T07:14:47.107Z,13.85
2023-04-19T07:17:15.135Z,14.03
2023-04-19T07:19:42.836Z,14.05
2023-04-19T07:22:10.339Z,14.38
2023-04-19T07:24:40.342Z,13.38
2023-04-19T07:27:08.330Z,14.07
2023-04-19T07:29:36.864Z,14.27
2023-04-19T07:32:05.012Z,13.27
2023-04-19T07:34:32.290Z,13.00
2023-04-19T07:36:59.862Z,14.25
2023-04-19T07:39:27.348Z,13.23
2023-04-19T07:41:54.660Z,13.63
2023-04-19T07:44:21.960Z,13.85
2023-04-19T07:46:49.583Z,13.93
2023-04-19T07:49:17.232Z,14.52
2023-04-19T07:51:44.623Z,13.95
2023-04-19T07:54:12.748Z,13.93
2023-04-19T07:56:40.431Z,13.73
2023-04-19T07:59:09.402Z,13.77
2023-04-19T08:01:37.311Z,13.65
2023-04-19T08:04:06.532Z,13.88
2023-04-19T08:06:38.369Z,13.00
2023-04-19T08:09:05.950Z,13.13
2023-04-19T08:11:33.201Z,14.00
2023-04-19T08:17:14.196Z,12.65
2023-04-19T08:19:19.444Z,13.53
2023-04-19T08:21:46.897Z,13.02
2023-04-19T08:24:14.473Z,12.93
2023-04-19T08:26:42.661Z,12.02
2023-04-19T08:29:10.122Z,13.30
2023-04-19T08:31:37.575Z,12.57
2023-04-19T08:34:05.189Z,12.57
2023-04-19T08:36:41.065Z,12.88
2023-04-19T08:39:24.724Z,11.77
2023-04-19T08:42:05.952Z,12.52
2023-04-19T08:44:48.924Z,11.87
2023-04-19T08:47:29.603Z,11.25
2023-04-19T08:50:17.284Z,12.15
2023-04-19T08:52:58.695Z,10.93
2023-04-19T08:55:31.070Z,10.93
2023-04-19T08:57:58.930Z,11.15
2023-04-19T09:00:26.426Z,10.47
2023-04-19T09:02:57.798Z,10.18
2023-04-19T09:05:25.856Z,9.95
2023-04-19T09:07:53.875Z,9.77
2023-04-19T09:10:21.874Z,10.93
2023-04-19T09:13:05.704Z,9.67
2023-04-19T09:15:37.975Z,10.07
2023-04-19T09:18:10.051Z,9.18
2023-04-19T09:20:42.467Z,9.75
2023-04-19T09:23:12.914Z,8.88
2023-04-19T09:28:37.078Z,8.27
2023-04-19T09:31:30.318Z,8.07
2023-04-19T09:34:17.033Z,7.32
2023-04-19T09:36:44.496Z,8.00
2023-04-19T09:39:15.209Z,7.27
2023-04-19T09:41:55.735Z,7.17
2023-04-19T09:44:53.065Z,7.50
2023-04-19T09:47:25.050Z,7.13
2023-04-19T09:50:21.776Z,5.82
2023-04-19T09:52:50.624Z,5.15
2023-04-19T09:55:26.686Z,3.37
2023-04-19T09:57:56.658Z,3.50
2023-04-19T10:00:27.026Z,3.53
2023-04-19T10:02:59.004Z,3.28
2023-04-19T10:05:27.035Z,3.50
2023-04-19T10:07:59.685Z,3.70
2023-04-19T10:10:41.179Z,3.10
2023-04-19T10:15:51.403Z,3.22
2023-04-19T10:18:21.570Z,3.20
2023-04-19T10:21:02.444Z,3.20
2023-04-19T10:23:30.217Z,3.30
2023-04-19T10:25:58.171Z,3.38
2023-04-19T10:28:28.326Z,2.95
2023-04-19T10:31:01.804Z,3.05
2023-04-19T10:33:32.174Z,3.37
2023-04-19T10:35:59.821Z,2.72
2023-04-19T10:38:49.611Z,2.65
2023-04-19T10:41:18.930Z,2.40
2023-04-19T10:43:47.572Z,2.70
2023-04-19T10:46:21.503Z,2.60
2023-04-19T10:48:58.900Z,3.00
2023-04-19T10:51:39.597Z,2.90
2023-04-19T10:54:29.574Z,2.40
2023-04-19T10:57:07.536Z,2.20
2023-04-19T10:59:36.029Z,2.10
2023-04-19T11:02:25.283Z,2.33
2023-04-19T11:04:54.251Z,2.40
2023-04-19T11:07:21.820Z,2.50
2023-04-19T11:09:51.207Z,2.42
2023-04-19T11:12:19.715Z,2.55
2023-04-19T11:14:54.853Z,2.50
2023-04-19T11:17:27.417Z,2.20
2023-04-19T11:19:56.544Z,2.30
2023-04-19T11:22:36.861Z,2.15
2023-04-19T11:25:14.563Z,2.40
2023-04-19T11:27:44.595Z,2.37
2023-04-19T11:30:14.926Z,1.95
2023-04-19T11:32:47.304Z,2.00
2023-04-19T11:35:14.992Z,1.98
2023-04-19T11:37:42.914Z,1.73
2023-04-19T11:40:14.449Z,1.80
2023-04-19T11:42:41.935Z,1.65
2023-04-19T11:45:26.067Z,2.00
2023-04-19T11:47:56.433Z,1.90
2023-04-19T11:50:42.088Z,1.70
2023-04-19T11:53:23.055Z,1.63
2023-04-19T11:55:51.687Z,1.60
2023-04-19T11:58:49.613Z,1.73
2023-04-19T12:01:19.859Z,1.55
2023-04-19T12:03:52.234Z,1.67
2023-04-19T12:06:31.756Z,1.53
2023-04-19T12:08:59.194Z,1.77
2023-04-19T12:11:42.474Z,2.00
2023-04-19T12:14:10.418Z,2.20
2023-04-19T12:16:38.212Z,1.70
2023-04-19T12:19:15.194Z,1.97
2023-04-19T12:21:42.831Z,1.40
2023-04-19T12:24:10.395Z,1.40
2023-04-19T12:26:38.237Z,1.45
2023-04-19T12:29:05.913Z,1.50
2023-04-19T12:31:33.950Z,1.58
2023-04-19T12:34:01.171Z,1.80
2023-04-19T12:36:28.733Z,1.95
2023-04-19T12:38:56.383Z,2.13
2023-04-19T12:41:23.883Z,1.50
2023-04-19T12:43:51.290Z,1.58
2023-04-19T12:46:18.999Z,1.50
2023-04-19T12:48:46.398Z,1.85
2023-04-19T12:51:13.693Z,1.67
2023-04-19T12:53:42.126Z,2.40
2023-04-19T12:56:09.531Z,2.03
2023-04-19T12:58:36.870Z,2.27
2023-04-19T13:01:04.163Z,3.30
2023-04-19T13:03:33.341Z,2.30
2023-04-19T13:06:01.342Z,2.70
2023-04-19T13:11:01.559Z,2.40
2023-04-19T13:13:29.543Z,2.30
2023-04-19T13:15:57.117Z,2.10
2023-04-19T13:18:24.928Z,1.88
2023-04-19T13:20:54.016Z,2.28
2023-04-19T13:23:21.702Z,2.30
2023-04-19T13:25:49.003Z,2.05
2023-04-19T13:28:16.321Z,2.20
2023-04-19T13:30:44.627Z,2.05
2023-04-19T13:33:11.900Z,1.83
2023-04-19T13:35:39.317Z,1.95
2023-04-19T13:38:06.768Z,1.80
2023-04-19T13:40:34.251Z,1.90
2023-04-19T13:43:01.725Z,1.90
2023-04-19T13:45:29.058Z,1.63
2023-04-19T13:47:56.490Z,1.90
2023-04-19T13:50:23.929Z,2.08
2023-04-19T13:52:51.718Z,2.07
2023-04-19T13:55:21.756Z,2.05
2023-04-19T13:57:49.171Z,2.55
2023-04-19T14:00:17.057Z,2.70
2023-04-19T14:02:45.527Z,2.72
2023-04-19T14:05:12.985Z,2.80
2023-04-19T14:07:40.768Z,2.63
2023-04-19T14:10:09.366Z,3.17
2023-04-19T14:12:36.776Z,2.80
2023-04-19T14:15:04.466Z,3.20
2023-04-19T14:17:31.913Z,2.87
2023-04-19T14:20:03.085Z,3.08
2023-04-19T14:22:42.828Z,3.00
2023-04-19T14:25:13.840Z,2.75
2023-04-19T14:27:42.990Z,2.97
2023-04-19T14:30:17.023Z,3.10
2023-04-19T14:32:50.485Z,2.85
2023-04-19T14:35:20.218Z,3.30
2023-04-19T14:37:48.311Z,3.20
2023-04-19T14:40:18.275Z,3.17
2023-04-19T14:42:45.634Z,2.90
2023-04-19T14:45:12.969Z,3.25
2023-04-19T14:47:40.622Z,3.08
2023-04-19T14:50:08.227Z,3.08
2023-04-19T14:52:35.748Z,3.53
2023-04-19T14:55:04.266Z,3.80
2023-04-19T14:57:32.012Z,3.15
2023-04-19T15:00:01.212Z,3.20
2023-04-19T15:02:29.069Z,3.55
2023-04-19T15:05:15.036Z,3.47
2023-04-19T15:07:45.072Z,3.67
2023-04-19T15:10:12.420Z,3.17
2023-04-19T15:12:39.781Z,3.30
2023-04-19T15:15:07.635Z,3.40
2023-04-19T15:17:35.306Z,3.58
2023-04-19T15:20:03.294Z,3.53
2023-04-19T15:22:30.815Z,3.67
2023-04-19T15:24:58.191Z,3.67
2023-04-19T15:27:25.784Z,4.00
2023-04-19T15:29:53.754Z,4.28
2023-04-19T15:32:22.156Z,4.10
2023-04-19T15:34:55.208Z,3.97
2023-04-19T15:37:28.383Z,4.22
2023-04-19T15:40:14.320Z,3.80
2023-04-19T15:42:43.132Z,6.00
2023-04-19T15:45:12.084Z,6.00
2023-04-19T15:47:45.341Z,3.95
2023-04-19T15:50:15.184Z,3.80
2023-04-19T15:52:46.689Z,3.83
2023-04-19T15:55:18.296Z,3.70
2023-04-19T15:57:50.409Z,3.53
2023-04-19T16:00:18.762Z,3.42
2023-04-19T16:02:46.193Z,3.47
2023-04-19T16:05:14.053Z,3.40
2023-04-19T16:07:44.396Z,3.55
2023-04-19T16:10:12.366Z,3.57
2023-04-19T16:12:39.656Z,3.50
2023-04-19T16:15:07.798Z,3.25
2023-04-19T16:17:35.117Z,3.85
2023-04-19T16:20:02.532Z,3.55
2023-04-19T16:22:29.800Z,3.83
2023-04-19T16:24:57.080Z,3.90
2023-04-19T16:27:24.438Z,4.03
2023-04-19T16:29:51.908Z,3.80
2023-04-19T16:32:19.295Z,4.10
2023-04-19T16:34:46.653Z,3.30
2023-04-19T16:37:16.062Z,4.30
2023-04-19T16:39:43.541Z,3.60
2023-04-19T16:42:10.919Z,4.15
2023-04-19T16:44:38.285Z,4.45
2023-04-19T16:47:05.644Z,4.73
2023-04-19T16:49:32.950Z,4.53
2023-04-19T16:52:00.120Z,3.53
2023-04-19T16:54:27.351Z,4.45
2023-04-19T16:56:55.605Z,4.47
2023-04-19T16:59:25.675Z,4.20
2023-04-19T17:01:58.378Z,3.88
2023-04-19T17:04:28.172Z,4.18
2023-04-19T17:06:56.100Z,4.10
2023-04-19T17:09:34.295Z,4.25
2023-04-19T17:12:02.263Z,4.30
2023-04-19T17:14:29.668Z,4.30
2023-04-19T17:16:57.000Z,4.18
2023-04-19T17:19:24.232Z,4.07
2023-04-19T17:21:51.661Z,3.83
2023-04-19T17:24:19.072Z,4.17
2023-04-19T17:26:46.639Z,4.28
2023-04-19T17:29:13.880Z,3.85
2023-04-19T17:31:41.335Z,4.40
2023-04-19T17:34:08.750Z,4.30
2023-04-19T17:36:36.287Z,4.10
2023-04-19T17:39:03.695Z,4.25
2023-04-19T17:41:31.057Z,4.35
2023-04-19T17:43:59.326Z,4.05
2023-04-19T17:46:26.644Z,4.30
2023-04-19T17:48:55.489Z,4.23
2023-04-19T17:51:22.871Z,4.20
2023-04-19T17:53:50.083Z,4.60
2023-04-19T17:56:17.691Z,4.63
2023-04-19T17:58:45.942Z,4.65
2023-04-19T18:01:15.299Z,4.57
2023-04-19T18:03:42.697Z,4.55
2023-04-19T18:06:10.738Z,5.47
2023-04-19T18:08:38.059Z,4.93
2023-04-19T18:11:05.671Z,4.75
2023-04-19T18:13:33.065Z,4.77
2023-04-19T18:16:00.597Z,4.50
2023-04-19T18:18:27.856Z,4.38
2023-04-19T18:20:55.265Z,4.57
2023-04-19T18:23:22.712Z,3.95
2023-04-19T18:25:54.280Z,4.30
2023-04-19T18:28:21.700Z,4.30
2023-04-19T18:30:48.866Z,4.75
2023-04-19T18:33:16.221Z,4.10
2023-04-19T18:35:43.463Z,3.78
2023-04-19T18:38:10.839Z,4.13
2023-04-19T18:40:38.081Z,3.97
2023-04-19T18:43:05.463Z,4.10
2023-04-19T18:45:33.353Z,4.57
2023-04-19T18:48:01.247Z,3.78
2023-04-19T18:50:28.510Z,3.93
2023-04-19T18:52:56.036Z,4.40
2023-04-19T18:55:23.247Z,4.30
2023-04-19T18:57:51.148Z,3.78
2023-04-19T19:00:20.001Z,4.43
2023-04-19T19:02:47.469Z,4.00
2023-04-19T19:05:16.198Z,3.80
2023-04-19T19:07:43.919Z,3.90
2023-04-19T19:10:19.434Z,3.95
2023-04-19T19:12:49.599Z,4.05
2023-04-19T19:15:17.522Z,3.83
2023-04-19T19:17:49.461Z,4.30
2023-04-19T19:20:18.387Z,3.67
2023-04-19T19:22:45.879Z,3.80
2023-04-19T19:25:13.421Z,3.80
2023-04-19T19:27:40.914Z,4.30
2023-04-19T19:30:08.858Z,3.58
2023-04-19T19:32:36.183Z,3.20
2023-04-19T19:35:06.242Z,3.50
2023-04-19T19:37:36.766Z,3.30
2023-04-19T19:40:06.613Z,3.13
2023-04-19T19:42:34.691Z,3.25
2023-04-19T19:45:04.761Z,3.83
2023-04-19T19:47:35.305Z,3.60
2023-04-19T19:52:34.308Z,3.37
2023-04-19T19:55:01.600Z,3.20
2023-04-19T20:00:18.023Z,2.78
2023-04-19T20:05:17.451Z,2.80
2023-04-19T20:08:01.102Z,2.70
2023-04-19T20:10:29.513Z,2.63
2023-04-19T20:12:57.327Z,2.78
2023-04-19T20:15:24.585Z,2.90
2023-04-19T20:17:51.921Z,2.93
2023-04-19T20:20:19.330Z,2.78
2023-04-19T20:22:47.899Z,2.50
2023-04-19T20:25:15.352Z,2.55
2023-04-19T20:27:42.558Z,2.80
2023-04-19T20:30:10.200Z,2.90
2023-04-19T20:32:37.419Z,2.63
2023-04-19T20:35:10.070Z,2.80
2023-04-19T20:37:39.823Z,2.33
2023-04-19T20:40:08.293Z,2.70
2023-04-19T20:42:35.528Z,2.87
2023-04-19T20:45:03.079Z,2.55
2023-04-19T20:47:32.096Z,2.60
2023-04-19T20:49:59.620Z,3.03
2023-04-19T20:52:26.869Z,2.70
2023-04-19T20:54:56.296Z,2.80
2023-04-19T20:57:23.615Z,2.58
2023-04-19T20:59:51.086Z,2.88
2023-04-19T21:02:18.382Z,2.60
2023-04-19T21:04:45.824Z,2.63
2023-04-19T21:07:13.354Z,2.70
2023-04-19T21:09:41.195Z,2.53
2023-04-19T21:12:08.497Z,2.78
2023-04-19T21:14:35.781Z,2.80
2023-04-19T21:17:03.325Z,3.08
2023-04-19T21:19:30.693Z,3.03
2023-04-19T21:21:58.575Z,3.15
2023-04-19T21:24:26.373Z,3.10
2023-04-19T21:26:53.607Z,2.88
2023-04-19T21:29:20.978Z,3.22
2023-04-19T21:31:48.492Z,2.70
2023-04-19T21:34:15.731Z,2.92
2023-04-19T21:36:42.974Z,2.80
2023-04-19T21:39:10.329Z,3.55
2023-04-19T21:41:37.893Z,3.10
2023-04-19T21:44:05.106Z,2.90
2023-04-19T21:46:33.426Z,3.28
2023-04-19T21:49:00.801Z,3.00
2023-04-19T21:51:28.245Z,3.17
2023-04-19T21:53:55.593Z,3.65
2023-04-19T21:56:22.840Z,3.57
2023-04-19T21:58:50.120Z,3.20
2023-04-19T22:01:17.604Z,3.45
2023-04-19T22:03:45.608Z,3.17
2023-04-19T22:06:13.991Z,3.47
2023-04-19T22:08:42.458Z,3.27
2023-04-19T22:11:09.693Z,3.30
2023-04-19T22:13:37.502Z,3.25
2023-04-19T22:16:05.156Z,3.17
2023-04-19T22:18:34.677Z,3.40
2023-04-19T22:21:02.088Z,3.37
2023-04-19T22:23:29.372Z,3.17
2023-04-19T22:25:56.763Z,3.28
2023-04-19T22:28:23.935Z,3.40
2023-04-19T22:30:51.366Z,3.10
2023-04-19T22:33:19.395Z,3.50
2023-04-19T22:35:46.683Z,3.50
2023-04-19T22:38:13.922Z,3.28
2023-04-19T22:40:41.360Z,3.17
2023-04-19T22:43:08.509Z,3.35
2023-04-19T22:45:35.832Z,3.10
2023-04-19T22:48:03.392Z,3.35
2023-04-19T22:50:31.138Z,3.38
2023-04-19T22:52:58.385Z,2.80
2023-04-19T22:55:25.930Z,3.00
2023-04-19T22:57:53.171Z,3.20
2023-04-19T23:00:20.503Z,3.20
2023-04-19T23:02:47.791Z,3.50
2023-04-19T23:05:15.194Z,3.42
2023-04-19T23:07:43.524Z,3.53
2023-04-19T23:10:12.361Z,3.53
2023-04-19T23:12:39.571Z,3.50
2023-04-19T23:15:07.674Z,4.22
2023-04-19T23:17:34.923Z,3.35
2023-04-19T23:20:02.324Z,3.28
2023-04-19T23:22:29.643Z,3.47
2023-04-19T23:24:56.845Z,3.55
2023-04-19T23:27:24.081Z,3.40
2023-04-19T23:29:51.431Z,3.22
2023-04-19T23:32:18.651Z,3.28
2023-04-19T23:34:46.023Z,3.67
2023-04-19T23:37:13.722Z,3.72
2023-04-19T23:39:41.176Z,3.70
2023-04-19T23:42:08.442Z,3.80
2023-04-19T23:44:35.790Z,3.63
2023-04-19T23:47:03.593Z,3.77
2023-04-19T23:49:31.254Z,3.60
2023-04-19T23:51:58.573Z,3.40
2023-04-19T23:54:26.385Z,3.78
2023-04-19T23:56:53.797Z,4.00
2023-04-19T23:59:21.067Z,3.30
